sensor_id;sensor_type;location;lat;lon;timestamp;temperature;humidity
48876;DHT22;34689;51.644;5.618;2022-07-12T00:01:21;18.50;96.50
48876;DHT22;34689;51.644;5.618;2022-07-12T00:03:46;18.50;96.60
48876;DHT22;34689;51.644;5.618;2022-07-12T00:06:12;18.50;96.60
48876;DHT22;34689;51.644;5.618;2022-07-12T00:08:38;18.40;96.60
48876;DHT22;34689;51.644;5.618;2022-07-12T00:11:04;18.40;96.60
48876;DHT22;34689;51.644;5.618;2022-07-12T00:13:33;18.40;96.70
48876;DHT22;34689;51.644;5.618;2022-07-12T00:15:59;18.30;96.70
48876;DHT22;34689;51.644;5.618;2022-07-12T00:18:24;18.30;96.70
48876;DHT22;34689;51.644;5.618;2022-07-12T00:20:50;18.30;96.70
48876;DHT22;34689;51.644;5.618;2022-07-12T00:23:16;18.30;96.70
48876;DHT22;34689;51.644;5.618;2022-07-12T00:25:42;18.30;96.70
48876;DHT22;34689;51.644;5.618;2022-07-12T00:28:08;18.30;96.70
48876;DHT22;34689;51.644;5.618;2022-07-12T00:30:34;18.30;96.70
48876;DHT22;34689;51.644;5.618;2022-07-12T00:32:59;18.20;96.80
48876;DHT22;34689;51.644;5.618;2022-07-12T00:35:25;18.20;96.80
48876;DHT22;34689;51.644;5.618;2022-07-12T00:37:51;18.20;96.80
48876;DHT22;34689;51.644;5.618;2022-07-12T00:40:17;18.20;96.80
48876;DHT22;34689;51.644;5.618;2022-07-12T00:42:43;18.20;96.80
48876;DHT22;34689;51.644;5.618;2022-07-12T00:45:09;18.20;96.80
48876;DHT22;34689;51.644;5.618;2022-07-12T00:50:16;18.10;96.90
48876;DHT22;34689;51.644;5.618;2022-07-12T00:52:44;18.10;96.90
48876;DHT22;34689;51.644;5.618;2022-07-12T00:55:12;18.10;96.90
48876;DHT22;34689;51.644;5.618;2022-07-12T00:57:41;18.00;96.90
48876;DHT22;34689;51.644;5.618;2022-07-12T01:00:10;18.00;96.90
48876;DHT22;34689;51.644;5.618;2022-07-12T01:02:36;18.00;96.90
48876;DHT22;34689;51.644;5.618;2022-07-12T01:05:07;18.00;96.90
48876;DHT22;34689;51.644;5.618;2022-07-12T01:07:34;18.00;97.00
48876;DHT22;34689;51.644;5.618;2022-07-12T01:10:01;17.90;97.00
48876;DHT22;34689;51.644;5.618;2022-07-12T01:12:26;17.90;97.00
48876;DHT22;34689;51.644;5.618;2022-07-12T01:14:53;17.90;97.00
48876;DHT22;34689;51.644;5.618;2022-07-12T01:17:24;17.90;97.10
48876;DHT22;34689;51.644;5.618;2022-07-12T01:19:51;17.90;97.10
48876;DHT22;34689;51.644;5.618;2022-07-12T01:22:17;17.90;97.10
48876;DHT22;34689;51.644;5.618;2022-07-12T01:24:44;17.90;97.10
48876;DHT22;34689;51.644;5.618;2022-07-12T01:27:11;17.80;97.10
48876;DHT22;34689;51.644;5.618;2022-07-12T01:29:38;17.80;97.10
48876;DHT22;34689;51.644;5.618;2022-07-12T01:32:05;17.80;97.20
48876;DHT22;34689;51.644;5.618;2022-07-12T01:37:19;17.70;97.20
48876;DHT22;34689;51.644;5.618;2022-07-12T01:39:48;17.70;97.20
48876;DHT22;34689;51.644;5.618;2022-07-12T01:42:14;17.70;97.20
48876;DHT22;34689;51.644;5.618;2022-07-12T01:44:42;17.60;97.20
48876;DHT22;34689;51.644;5.618;2022-07-12T01:47:08;17.60;97.10
48876;DHT22;34689;51.644;5.618;2022-07-12T01:49:34;17.60;97.20
48876;DHT22;34689;51.644;5.618;2022-07-12T01:51:59;17.60;97.20
48876;DHT22;34689;51.644;5.618;2022-07-12T01:54:25;17.50;97.10
48876;DHT22;34689;51.644;5.618;2022-07-12T01:56:57;17.50;97.20
48876;DHT22;34689;51.644;5.618;2022-07-12T01:59:22;17.50;97.20
48876;DHT22;34689;51.644;5.618;2022-07-12T02:01:51;17.40;97.20
48876;DHT22;34689;51.644;5.618;2022-07-12T02:04:18;17.40;97.20
48876;DHT22;34689;51.644;5.618;2022-07-12T02:06:45;17.40;97.30
48876;DHT22;34689;51.644;5.618;2022-07-12T02:09:12;17.40;97.30
48876;DHT22;34689;51.644;5.618;2022-07-12T02:11:37;17.40;97.30
48876;DHT22;34689;51.644;5.618;2022-07-12T02:14:03;17.40;97.30
48876;DHT22;34689;51.644;5.618;2022-07-12T02:16:29;17.40;97.40
48876;DHT22;34689;51.644;5.618;2022-07-12T02:18:55;17.30;97.30
48876;DHT22;34689;51.644;5.618;2022-07-12T02:21:20;17.30;97.30
48876;DHT22;34689;51.644;5.618;2022-07-12T02:23:46;17.30;97.30
48876;DHT22;34689;51.644;5.618;2022-07-12T02:26:12;17.30;97.30
48876;DHT22;34689;51.644;5.618;2022-07-12T02:28:37;17.30;97.30
48876;DHT22;34689;51.644;5.618;2022-07-12T02:31:03;17.30;97.30
48876;DHT22;34689;51.644;5.618;2022-07-12T02:33:29;17.30;97.40
48876;DHT22;34689;51.644;5.618;2022-07-12T02:35:54;17.30;97.40
48876;DHT22;34689;51.644;5.618;2022-07-12T02:38:20;17.30;97.40
48876;DHT22;34689;51.644;5.618;2022-07-12T02:40:47;17.20;97.40
48876;DHT22;34689;51.644;5.618;2022-07-12T02:43:28;17.20;97.40
48876;DHT22;34689;51.644;5.618;2022-07-12T02:46:02;17.20;97.70
48876;DHT22;34689;51.644;5.618;2022-07-12T02:48:27;17.20;97.50
48876;DHT22;34689;51.644;5.618;2022-07-12T02:50:53;17.20;97.40
48876;DHT22;34689;51.644;5.618;2022-07-12T02:53:19;17.20;97.50
48876;DHT22;34689;51.644;5.618;2022-07-12T02:55:45;17.10;97.50
48876;DHT22;34689;51.644;5.618;2022-07-12T02:58:10;17.10;97.50
48876;DHT22;34689;51.644;5.618;2022-07-12T03:00:38;17.10;97.50
48876;DHT22;34689;51.644;5.618;2022-07-12T03:03:04;17.10;97.50
48876;DHT22;34689;51.644;5.618;2022-07-12T03:05:33;17.10;97.50
48876;DHT22;34689;51.644;5.618;2022-07-12T03:07:59;17.10;97.60
48876;DHT22;34689;51.644;5.618;2022-07-12T03:10:24;17.00;97.60
48876;DHT22;34689;51.644;5.618;2022-07-12T03:12:50;17.00;97.70
48876;DHT22;34689;51.644;5.618;2022-07-12T03:15:16;17.00;98.00
48876;DHT22;34689;51.644;5.618;2022-07-12T03:17:42;17.00;97.60
48876;DHT22;34689;51.644;5.618;2022-07-12T03:20:08;17.00;97.60
48876;DHT22;34689;51.644;5.618;2022-07-12T03:22:37;17.00;97.60
48876;DHT22;34689;51.644;5.618;2022-07-12T03:25:03;16.90;97.60
48876;DHT22;34689;51.644;5.618;2022-07-12T03:27:29;16.90;97.60
48876;DHT22;34689;51.644;5.618;2022-07-12T03:29:57;16.90;97.60
48876;DHT22;34689;51.644;5.618;2022-07-12T03:32:23;16.90;97.70
48876;DHT22;34689;51.644;5.618;2022-07-12T03:34:48;16.90;97.70
48876;DHT22;34689;51.644;5.618;2022-07-12T03:37:14;16.80;97.60
48876;DHT22;34689;51.644;5.618;2022-07-12T03:39:42;16.80;97.60
48876;DHT22;34689;51.644;5.618;2022-07-12T03:42:08;16.80;97.60
48876;DHT22;34689;51.644;5.618;2022-07-12T03:44:36;16.80;97.60
48876;DHT22;34689;51.644;5.618;2022-07-12T03:47:02;16.80;97.60
48876;DHT22;34689;51.644;5.618;2022-07-12T03:49:27;16.80;97.60
48876;DHT22;34689;51.644;5.618;2022-07-12T03:51:53;16.80;97.60
48876;DHT22;34689;51.644;5.618;2022-07-12T03:54:21;16.80;97.60
48876;DHT22;34689;51.644;5.618;2022-07-12T03:56:49;16.80;97.60
48876;DHT22;34689;51.644;5.618;2022-07-12T03:59:34;16.70;97.60
48876;DHT22;34689;51.644;5.618;2022-07-12T04:02:00;16.70;97.60
48876;DHT22;34689;51.644;5.618;2022-07-12T04:04:27;16.70;97.60
48876;DHT22;34689;51.644;5.618;2022-07-12T04:06:53;16.70;97.60
48876;DHT22;34689;51.644;5.618;2022-07-12T04:09:18;16.70;97.60
48876;DHT22;34689;51.644;5.618;2022-07-12T04:11:44;16.70;97.60
48876;DHT22;34689;51.644;5.618;2022-07-12T04:14:10;16.70;97.70
48876;DHT22;34689;51.644;5.618;2022-07-12T04:16:35;16.70;97.70
48876;DHT22;34689;51.644;5.618;2022-07-12T04:19:01;16.70;97.70
48876;DHT22;34689;51.644;5.618;2022-07-12T04:21:27;16.80;97.80
48876;DHT22;34689;51.644;5.618;2022-07-12T04:23:53;16.80;97.80
48876;DHT22;34689;51.644;5.618;2022-07-12T04:26:18;16.70;97.80
48876;DHT22;34689;51.644;5.618;2022-07-12T04:28:44;16.70;97.90
48876;DHT22;34689;51.644;5.618;2022-07-12T04:31:10;16.70;97.90
48876;DHT22;34689;51.644;5.618;2022-07-12T04:33:35;16.80;98.00
48876;DHT22;34689;51.644;5.618;2022-07-12T04:36:01;16.80;98.00
48876;DHT22;34689;51.644;5.618;2022-07-12T04:38:27;16.80;98.30
48876;DHT22;34689;51.644;5.618;2022-07-12T04:40:52;16.80;98.10
48876;DHT22;34689;51.644;5.618;2022-07-12T04:43:18;16.80;98.20
48876;DHT22;34689;51.644;5.618;2022-07-12T04:45:44;16.80;98.20
48876;DHT22;34689;51.644;5.618;2022-07-12T04:48:10;16.80;98.20
48876;DHT22;34689;51.644;5.618;2022-07-12T04:50:36;16.80;98.30
48876;DHT22;34689;51.644;5.618;2022-07-12T04:53:05;16.90;98.30
48876;DHT22;34689;51.644;5.618;2022-07-12T04:55:31;16.90;98.30
48876;DHT22;34689;51.644;5.618;2022-07-12T04:57:56;16.90;98.40
48876;DHT22;34689;51.644;5.618;2022-07-12T05:00:22;16.90;98.40
48876;DHT22;34689;51.644;5.618;2022-07-12T05:02:48;16.90;98.50
48876;DHT22;34689;51.644;5.618;2022-07-12T05:05:14;17.00;98.60
48876;DHT22;34689;51.644;5.618;2022-07-12T05:07:40;17.00;98.60
48876;DHT22;34689;51.644;5.618;2022-07-12T05:10:06;17.10;98.60
48876;DHT22;34689;51.644;5.618;2022-07-12T05:12:34;17.10;98.60
48876;DHT22;34689;51.644;5.618;2022-07-12T05:14:59;17.10;98.70
48876;DHT22;34689;51.644;5.618;2022-07-12T05:17:27;17.20;98.70
48876;DHT22;34689;51.644;5.618;2022-07-12T05:19:53;17.20;98.70
48876;DHT22;34689;51.644;5.618;2022-07-12T05:22:19;17.30;98.70
48876;DHT22;34689;51.644;5.618;2022-07-12T05:24:44;17.30;98.60
48876;DHT22;34689;51.644;5.618;2022-07-12T05:27:10;17.30;98.70
48876;DHT22;34689;51.644;5.618;2022-07-12T05:29:36;17.40;98.70
48876;DHT22;34689;51.644;5.618;2022-07-12T05:32:01;17.40;98.70
48876;DHT22;34689;51.644;5.618;2022-07-12T05:34:28;17.50;98.80
48876;DHT22;34689;51.644;5.618;2022-07-12T05:36:54;17.50;98.80
48876;DHT22;34689;51.644;5.618;2022-07-12T05:39:20;17.50;98.80
48876;DHT22;34689;51.644;5.618;2022-07-12T05:41:46;17.60;98.80
48876;DHT22;34689;51.644;5.618;2022-07-12T05:44:14;17.60;98.80
48876;DHT22;34689;51.644;5.618;2022-07-12T05:46:42;17.70;98.90
48876;DHT22;34689;51.644;5.618;2022-07-12T05:49:08;17.70;98.90
48876;DHT22;34689;51.644;5.618;2022-07-12T05:51:33;17.70;98.90
48876;DHT22;34689;51.644;5.618;2022-07-12T05:54:18;17.80;98.90
48876;DHT22;34689;51.644;5.618;2022-07-12T05:56:43;17.80;99.00
48876;DHT22;34689;51.644;5.618;2022-07-12T05:59:09;17.80;99.00
48876;DHT22;34689;51.644;5.618;2022-07-12T06:01:35;17.90;99.00
48876;DHT22;34689;51.644;5.618;2022-07-12T06:04:01;17.90;99.00
48876;DHT22;34689;51.644;5.618;2022-07-12T06:06:27;18.00;99.10
48876;DHT22;34689;51.644;5.618;2022-07-12T06:08:53;18.00;99.10
48876;DHT22;34689;51.644;5.618;2022-07-12T06:11:18;18.00;99.10
48876;DHT22;34689;51.644;5.618;2022-07-12T06:13:46;18.10;99.10
48876;DHT22;34689;51.644;5.618;2022-07-12T06:16:12;18.10;99.10
48876;DHT22;34689;51.644;5.618;2022-07-12T06:18:38;18.10;99.20
48876;DHT22;34689;51.644;5.618;2022-07-12T06:21:04;18.10;99.20
48876;DHT22;34689;51.644;5.618;2022-07-12T06:23:30;18.10;99.20
48876;DHT22;34689;51.644;5.618;2022-07-12T06:25:56;18.20;99.20
48876;DHT22;34689;51.644;5.618;2022-07-12T06:28:22;18.20;99.20
48876;DHT22;34689;51.644;5.618;2022-07-12T06:30:47;18.30;99.20
48876;DHT22;34689;51.644;5.618;2022-07-12T06:33:15;18.30;99.20
48876;DHT22;34689;51.644;5.618;2022-07-12T06:35:41;18.40;99.20
48876;DHT22;34689;51.644;5.618;2022-07-12T06:38:07;18.40;99.20
48876;DHT22;34689;51.644;5.618;2022-07-12T06:40:32;18.50;99.30
48876;DHT22;34689;51.644;5.618;2022-07-12T06:42:58;18.50;99.30
48876;DHT22;34689;51.644;5.618;2022-07-12T06:45:24;18.60;99.30
48876;DHT22;34689;51.644;5.618;2022-07-12T06:47:51;18.60;99.30
48876;DHT22;34689;51.644;5.618;2022-07-12T06:50:17;18.70;99.30
48876;DHT22;34689;51.644;5.618;2022-07-12T06:52:42;18.70;99.30
48876;DHT22;34689;51.644;5.618;2022-07-12T06:55:08;18.80;99.30
48876;DHT22;34689;51.644;5.618;2022-07-12T06:57:34;18.80;99.30
48876;DHT22;34689;51.644;5.618;2022-07-12T07:00:01;18.80;99.30
48876;DHT22;34689;51.644;5.618;2022-07-12T07:02:27;18.90;99.30
48876;DHT22;34689;51.644;5.618;2022-07-12T07:04:52;19.00;99.30
48876;DHT22;34689;51.644;5.618;2022-07-12T07:07:18;19.00;99.30
48876;DHT22;34689;51.644;5.618;2022-07-12T07:09:44;19.00;99.30
48876;DHT22;34689;51.644;5.618;2022-07-12T07:12:10;19.10;99.30
48876;DHT22;34689;51.644;5.618;2022-07-12T07:14:35;19.10;99.30
48876;DHT22;34689;51.644;5.618;2022-07-12T07:17:01;19.20;99.60
48876;DHT22;34689;51.644;5.618;2022-07-12T07:19:27;19.20;99.30
48876;DHT22;34689;51.644;5.618;2022-07-12T07:21:53;19.30;99.30
48876;DHT22;34689;51.644;5.618;2022-07-12T07:24:24;19.30;99.30
48876;DHT22;34689;51.644;5.618;2022-07-12T07:26:52;19.40;99.30
48876;DHT22;34689;51.644;5.618;2022-07-12T07:29:17;19.40;99.20
48876;DHT22;34689;51.644;5.618;2022-07-12T07:32:02;19.50;99.30
48876;DHT22;34689;51.644;5.618;2022-07-12T07:34:28;19.50;99.30
48876;DHT22;34689;51.644;5.618;2022-07-12T07:36:54;19.50;99.20
48876;DHT22;34689;51.644;5.618;2022-07-12T07:39:20;19.50;99.20
48876;DHT22;34689;51.644;5.618;2022-07-12T07:41:46;19.60;99.10
48876;DHT22;34689;51.644;5.618;2022-07-12T07:44:11;19.60;99.10
48876;DHT22;34689;51.644;5.618;2022-07-12T07:46:37;19.60;99.10
48876;DHT22;34689;51.644;5.618;2022-07-12T07:49:03;19.70;99.10
48876;DHT22;34689;51.644;5.618;2022-07-12T07:51:32;19.70;99.10
48876;DHT22;34689;51.644;5.618;2022-07-12T07:53:58;19.80;99.00
48876;DHT22;34689;51.644;5.618;2022-07-12T07:56:23;19.90;98.90
48876;DHT22;34689;51.644;5.618;2022-07-12T07:58:49;19.90;98.90
48876;DHT22;34689;51.644;5.618;2022-07-12T08:01:17;20.00;98.90
48876;DHT22;34689;51.644;5.618;2022-07-12T08:03:42;20.00;98.90
48876;DHT22;34689;51.644;5.618;2022-07-12T08:06:08;20.10;98.90
48876;DHT22;34689;51.644;5.618;2022-07-12T08:08:34;20.20;98.80
48876;DHT22;34689;51.644;5.618;2022-07-12T08:10:59;20.20;98.70
48876;DHT22;34689;51.644;5.618;2022-07-12T08:13:25;20.30;98.70
48876;DHT22;34689;51.644;5.618;2022-07-12T08:15:51;20.40;98.70
48876;DHT22;34689;51.644;5.618;2022-07-12T08:18:16;20.40;98.60
48876;DHT22;34689;51.644;5.618;2022-07-12T08:20:42;20.50;98.60
48876;DHT22;34689;51.644;5.618;2022-07-12T08:23:08;20.60;98.60
48876;DHT22;34689;51.644;5.618;2022-07-12T08:25:34;20.60;98.50
48876;DHT22;34689;51.644;5.618;2022-07-12T08:28:00;20.70;98.30
48876;DHT22;34689;51.644;5.618;2022-07-12T08:30:26;20.80;98.20
48876;DHT22;34689;51.644;5.618;2022-07-12T08:32:52;20.90;98.00
48876;DHT22;34689;51.644;5.618;2022-07-12T08:35:18;20.90;97.90
48876;DHT22;34689;51.644;5.618;2022-07-12T08:37:44;21.00;97.90
48876;DHT22;34689;51.644;5.618;2022-07-12T08:40:10;21.00;97.70
48876;DHT22;34689;51.644;5.618;2022-07-12T08:42:39;21.10;97.60
48876;DHT22;34689;51.644;5.618;2022-07-12T08:45:06;21.10;97.60
48876;DHT22;34689;51.644;5.618;2022-07-12T08:47:31;21.20;97.40
48876;DHT22;34689;51.644;5.618;2022-07-12T08:50:17;21.20;97.30
48876;DHT22;34689;51.644;5.618;2022-07-12T08:52:53;21.30;97.10
48876;DHT22;34689;51.644;5.618;2022-07-12T08:55:32;21.30;97.20
48876;DHT22;34689;51.644;5.618;2022-07-12T08:58:01;21.30;97.10
48876;DHT22;34689;51.644;5.618;2022-07-12T09:00:33;21.40;97.10
48876;DHT22;34689;51.644;5.618;2022-07-12T09:03:01;21.50;97.00
48876;DHT22;34689;51.644;5.618;2022-07-12T09:05:32;21.50;96.80
48876;DHT22;34689;51.644;5.618;2022-07-12T09:08:06;21.50;96.70
48876;DHT22;34689;51.644;5.618;2022-07-12T09:10:35;21.60;96.70
48876;DHT22;34689;51.644;5.618;2022-07-12T09:13:01;21.60;96.60
48876;DHT22;34689;51.644;5.618;2022-07-12T09:15:27;21.60;96.50
48876;DHT22;34689;51.644;5.618;2022-07-12T09:18:07;21.70;96.40
48876;DHT22;34689;51.644;5.618;2022-07-12T09:20:41;21.70;96.10
48876;DHT22;34689;51.644;5.618;2022-07-12T09:23:09;21.80;96.00
48876;DHT22;34689;51.644;5.618;2022-07-12T09:25:36;21.80;95.90
48876;DHT22;34689;51.644;5.618;2022-07-12T09:28:06;21.90;95.80
48876;DHT22;34689;51.644;5.618;2022-07-12T09:30:33;21.90;95.80
48876;DHT22;34689;51.644;5.618;2022-07-12T09:33:02;22.00;95.80
48876;DHT22;34689;51.644;5.618;2022-07-12T09:38:34;22.00;95.40
48876;DHT22;34689;51.644;5.618;2022-07-12T09:41:00;22.10;95.30
48876;DHT22;34689;51.644;5.618;2022-07-12T09:43:27;22.20;95.20
48876;DHT22;34689;51.644;5.618;2022-07-12T09:45:53;22.30;95.00
48876;DHT22;34689;51.644;5.618;2022-07-12T09:48:22;22.30;94.80
48876;DHT22;34689;51.644;5.618;2022-07-12T09:50:50;22.40;94.60
48876;DHT22;34689;51.644;5.618;2022-07-12T09:53:28;22.50;94.50
48876;DHT22;34689;51.644;5.618;2022-07-12T09:55:54;22.60;94.50
48876;DHT22;34689;51.644;5.618;2022-07-12T09:58:37;22.70;94.60
48876;DHT22;34689;51.644;5.618;2022-07-12T10:01:06;22.70;94.40
48876;DHT22;34689;51.644;5.618;2022-07-12T10:03:33;22.80;94.40
48876;DHT22;34689;51.644;5.618;2022-07-12T10:06:01;22.90;94.30
48876;DHT22;34689;51.644;5.618;2022-07-12T10:08:28;23.00;94.20
48876;DHT22;34689;51.644;5.618;2022-07-12T10:10:54;23.10;94.20
48876;DHT22;34689;51.644;5.618;2022-07-12T10:13:23;23.20;94.00
48876;DHT22;34689;51.644;5.618;2022-07-12T10:15:50;23.40;93.90
48876;DHT22;34689;51.644;5.618;2022-07-12T10:18:20;23.60;93.60
48876;DHT22;34689;51.644;5.618;2022-07-12T10:20:48;24.10;93.00
48876;DHT22;34689;51.644;5.618;2022-07-12T10:23:30;25.30;92.30
48876;DHT22;34689;51.644;5.618;2022-07-12T10:25:56;27.40;89.20
48876;DHT22;34689;51.644;5.618;2022-07-12T10:28:22;29.10;84.40
48876;DHT22;34689;51.644;5.618;2022-07-12T10:30:49;30.10;80.70
48876;DHT22;34689;51.644;5.618;2022-07-12T10:33:20;30.50;79.40
48876;DHT22;34689;51.644;5.618;2022-07-12T10:36:07;30.70;77.30
48876;DHT22;34689;51.644;5.618;2022-07-12T10:38:35;30.40;75.30
48876;DHT22;34689;51.644;5.618;2022-07-12T10:41:18;30.00;78.90
48876;DHT22;34689;51.644;5.618;2022-07-12T10:43:44;29.30;79.10
48876;DHT22;34689;51.644;5.618;2022-07-12T10:46:58;28.70;83.10
48876;DHT22;34689;51.644;5.618;2022-07-12T10:49:32;28.20;83.00
48876;DHT22;34689;51.644;5.618;2022-07-12T10:54:41;27.80;84.80
48876;DHT22;34689;51.644;5.618;2022-07-12T10:57:07;27.60;85.90
48876;DHT22;34689;51.644;5.618;2022-07-12T10:59:37;27.50;86.30
48876;DHT22;34689;51.644;5.618;2022-07-12T11:02:03;27.40;86.00
48876;DHT22;34689;51.644;5.618;2022-07-12T11:04:30;27.30;85.20
48876;DHT22;34689;51.644;5.618;2022-07-12T11:07:02;27.20;84.10
48876;DHT22;34689;51.644;5.618;2022-07-12T11:09:28;27.10;84.10
48876;DHT22;34689;51.644;5.618;2022-07-12T11:11:54;27.10;84.80
48876;DHT22;34689;51.644;5.618;2022-07-12T11:14:25;27.10;84.50
48876;DHT22;34689;51.644;5.618;2022-07-12T11:16:52;27.10;84.10
48876;DHT22;34689;51.644;5.618;2022-07-12T11:19:28;27.10;83.80
48876;DHT22;34689;51.644;5.618;2022-07-12T11:21:57;27.00;83.20
48876;DHT22;34689;51.644;5.618;2022-07-12T11:24:24;27.00;83.30
48876;DHT22;34689;51.644;5.618;2022-07-12T11:26:51;26.90;83.60
48876;DHT22;34689;51.644;5.618;2022-07-12T11:29:18;26.80;83.20
48876;DHT22;34689;51.644;5.618;2022-07-12T11:31:49;26.70;83.00
48876;DHT22;34689;51.644;5.618;2022-07-12T11:34:22;26.70;82.70
48876;DHT22;34689;51.644;5.618;2022-07-12T11:36:51;26.60;82.70
48876;DHT22;34689;51.644;5.618;2022-07-12T11:39:39;26.70;82.80
48876;DHT22;34689;51.644;5.618;2022-07-12T11:42:06;26.70;82.40
48876;DHT22;34689;51.644;5.618;2022-07-12T11:44:54;26.80;82.80
48876;DHT22;34689;51.644;5.618;2022-07-12T11:47:25;26.70;82.20
48876;DHT22;34689;51.644;5.618;2022-07-12T11:49:55;26.70;82.70
48876;DHT22;34689;51.644;5.618;2022-07-12T11:52:24;26.70;82.80
48876;DHT22;34689;51.644;5.618;2022-07-12T11:54:52;26.70;82.60
48876;DHT22;34689;51.644;5.618;2022-07-12T11:57:24;26.70;82.30
48876;DHT22;34689;51.644;5.618;2022-07-12T11:59:50;26.80;81.20
48876;DHT22;34689;51.644;5.618;2022-07-12T12:02:16;26.90;81.40
48876;DHT22;34689;51.644;5.618;2022-07-12T12:04:49;26.90;81.00
48876;DHT22;34689;51.644;5.618;2022-07-12T12:07:16;27.00;80.80
48876;DHT22;34689;51.644;5.618;2022-07-12T12:09:59;27.00;81.30
48876;DHT22;34689;51.644;5.618;2022-07-12T12:12:25;27.00;80.60
48876;DHT22;34689;51.644;5.618;2022-07-12T12:14:51;27.00;80.80
48876;DHT22;34689;51.644;5.618;2022-07-12T12:17:17;26.90;80.90
48876;DHT22;34689;51.644;5.618;2022-07-12T12:19:45;27.00;80.70
48876;DHT22;34689;51.644;5.618;2022-07-12T12:22:33;27.00;80.90
48876;DHT22;34689;51.644;5.618;2022-07-12T12:25:00;27.20;79.20
48876;DHT22;34689;51.644;5.618;2022-07-12T12:27:26;27.20;80.00
48876;DHT22;34689;51.644;5.618;2022-07-12T12:29:52;27.30;79.50
48876;DHT22;34689;51.644;5.618;2022-07-12T12:32:20;27.30;79.20
48876;DHT22;34689;51.644;5.618;2022-07-12T12:35:08;27.30;79.30
48876;DHT22;34689;51.644;5.618;2022-07-12T12:37:36;27.30;79.00
48876;DHT22;34689;51.644;5.618;2022-07-12T12:40:03;27.40;79.60
48876;DHT22;34689;51.644;5.618;2022-07-12T12:42:29;27.40;78.30
48876;DHT22;34689;51.644;5.618;2022-07-12T12:44:58;27.50;78.60
48876;DHT22;34689;51.644;5.618;2022-07-12T12:47:23;27.50;78.40
48876;DHT22;34689;51.644;5.618;2022-07-12T12:50:00;27.50;78.40
48876;DHT22;34689;51.644;5.618;2022-07-12T12:52:27;27.60;77.80
48876;DHT22;34689;51.644;5.618;2022-07-12T12:54:55;27.60;76.80
48876;DHT22;34689;51.644;5.618;2022-07-12T12:57:21;27.60;76.60
48876;DHT22;34689;51.644;5.618;2022-07-12T12:59:47;27.60;77.00
48876;DHT22;34689;51.644;5.618;2022-07-12T13:02:13;27.60;76.40
48876;DHT22;34689;51.644;5.618;2022-07-12T13:04:39;27.50;76.50
48876;DHT22;34689;51.644;5.618;2022-07-12T13:07:05;27.50;76.20
48876;DHT22;34689;51.644;5.618;2022-07-12T13:09:32;27.60;75.50
48876;DHT22;34689;51.644;5.618;2022-07-12T13:11:58;27.70;75.00
48876;DHT22;34689;51.644;5.618;2022-07-12T13:14:25;27.70;75.20
48876;DHT22;34689;51.644;5.618;2022-07-12T13:16:51;27.80;73.80
48876;DHT22;34689;51.644;5.618;2022-07-12T13:19:17;27.80;73.50
48876;DHT22;34689;51.644;5.618;2022-07-12T13:21:43;27.80;73.50
48876;DHT22;34689;51.644;5.618;2022-07-12T13:24:08;27.80;73.30
48876;DHT22;34689;51.644;5.618;2022-07-12T13:26:34;27.80;72.50
48876;DHT22;34689;51.644;5.618;2022-07-12T13:29:00;27.80;72.10
48876;DHT22;34689;51.644;5.618;2022-07-12T13:31:26;27.80;72.00
48876;DHT22;34689;51.644;5.618;2022-07-12T13:33:52;27.90;71.80
48876;DHT22;34689;51.644;5.618;2022-07-12T13:36:19;28.00;71.70
48876;DHT22;34689;51.644;5.618;2022-07-12T13:38:44;28.00;72.20
48876;DHT22;34689;51.644;5.618;2022-07-12T13:41:10;28.20;71.50
48876;DHT22;34689;51.644;5.618;2022-07-12T13:43:36;28.20;71.10
48876;DHT22;34689;51.644;5.618;2022-07-12T13:46:01;28.20;71.30
48876;DHT22;34689;51.644;5.618;2022-07-12T13:48:28;28.20;70.40
48876;DHT22;34689;51.644;5.618;2022-07-12T13:50:53;28.10;70.30
48876;DHT22;34689;51.644;5.618;2022-07-12T13:53:19;28.10;70.20
48876;DHT22;34689;51.644;5.618;2022-07-12T13:55:45;28.00;70.20
48876;DHT22;34689;51.644;5.618;2022-07-12T13:58:12;28.00;70.20
48876;DHT22;34689;51.644;5.618;2022-07-12T14:00:40;27.90;70.20
48876;DHT22;34689;51.644;5.618;2022-07-12T14:03:06;27.90;70.30
48876;DHT22;34689;51.644;5.618;2022-07-12T14:05:32;27.80;69.80
48876;DHT22;34689;51.644;5.618;2022-07-12T14:07:58;27.70;70.30
48876;DHT22;34689;51.644;5.618;2022-07-12T14:10:24;27.70;70.50
48876;DHT22;34689;51.644;5.618;2022-07-12T14:12:53;27.60;71.10
48876;DHT22;34689;51.644;5.618;2022-07-12T14:15:22;27.50;71.00
48876;DHT22;34689;51.644;5.618;2022-07-12T14:18:04;27.50;71.10
48876;DHT22;34689;51.644;5.618;2022-07-12T14:20:32;27.50;71.10
48876;DHT22;34689;51.644;5.618;2022-07-12T14:22:58;27.50;71.10
48876;DHT22;34689;51.644;5.618;2022-07-12T14:25:24;27.40;71.30
48876;DHT22;34689;51.644;5.618;2022-07-12T14:27:52;27.40;71.30
48876;DHT22;34689;51.644;5.618;2022-07-12T14:30:18;27.30;71.70
48876;DHT22;34689;51.644;5.618;2022-07-12T14:32:44;27.30;71.90
48876;DHT22;34689;51.644;5.618;2022-07-12T14:35:10;27.30;72.20
48876;DHT22;34689;51.644;5.618;2022-07-12T14:37:39;27.30;72.30
48876;DHT22;34689;51.644;5.618;2022-07-12T14:40:06;27.30;72.60
48876;DHT22;34689;51.644;5.618;2022-07-12T14:42:32;27.30;72.90
48876;DHT22;34689;51.644;5.618;2022-07-12T14:44:58;27.30;73.10
48876;DHT22;34689;51.644;5.618;2022-07-12T14:47:24;27.30;73.40
48876;DHT22;34689;51.644;5.618;2022-07-12T14:49:52;27.20;73.30
48876;DHT22;34689;51.644;5.618;2022-07-12T14:52:21;27.20;73.40
48876;DHT22;34689;51.644;5.618;2022-07-12T14:54:47;27.10;73.40
48876;DHT22;34689;51.644;5.618;2022-07-12T14:57:13;27.10;73.70
48876;DHT22;34689;51.644;5.618;2022-07-12T14:59:38;27.00;73.90
48876;DHT22;34689;51.644;5.618;2022-07-12T15:02:04;27.00;74.20
48876;DHT22;34689;51.644;5.618;2022-07-12T15:04:30;27.00;74.10
48876;DHT22;34689;51.644;5.618;2022-07-12T15:06:56;27.00;74.20
48876;DHT22;34689;51.644;5.618;2022-07-12T15:09:21;27.00;74.10
48876;DHT22;34689;51.644;5.618;2022-07-12T15:11:47;27.00;74.10
48876;DHT22;34689;51.644;5.618;2022-07-12T15:14:13;26.90;74.30
48876;DHT22;34689;51.644;5.618;2022-07-12T15:16:39;26.90;74.40
48876;DHT22;34689;51.644;5.618;2022-07-12T15:19:04;26.90;74.60
48876;DHT22;34689;51.644;5.618;2022-07-12T15:21:30;26.90;74.30
48876;DHT22;34689;51.644;5.618;2022-07-12T15:23:58;26.90;74.30
48876;DHT22;34689;51.644;5.618;2022-07-12T15:26:30;26.80;74.10
48876;DHT22;34689;51.644;5.618;2022-07-12T15:28:58;26.80;74.00
48876;DHT22;34689;51.644;5.618;2022-07-12T15:31:25;26.80;74.10
48876;DHT22;34689;51.644;5.618;2022-07-12T15:33:51;26.80;74.20
48876;DHT22;34689;51.644;5.618;2022-07-12T15:36:17;26.80;74.40
48876;DHT22;34689;51.644;5.618;2022-07-12T15:38:43;26.80;74.40
48876;DHT22;34689;51.644;5.618;2022-07-12T15:41:13;26.80;74.50
48876;DHT22;34689;51.644;5.618;2022-07-12T15:43:42;26.80;74.20